createdAt,value
2023-05-19T00:00:16.135Z,16.90
2023-05-19T00:03:05.312Z,19.20
2023-05-19T00:05:37.053Z,20.00
2023-05-19T00:08:07.073Z,21.70
2023-05-19T00:10:36.210Z,19.40
2023-05-19T00:13:04.997Z,20.70
2023-05-19T00:15:34.042Z,20.50
2023-05-19T00:18:02.800Z,21.10
2023-05-19T00:20:31.592Z,22.10
2023-05-19T00:23:00.563Z,19.80
2023-05-19T00:25:29.210Z,20.30
2023-05-19T00:27:59.333Z,23.40
2023-05-19T00:30:28.100Z,19.70
2023-05-19T00:32:56.750Z,19.60
2023-05-19T00:35:25.510Z,20.40
2023-05-19T00:37:54.183Z,19.70
2023-05-19T00:40:24.599Z,19.00
2023-05-19T00:42:54.221Z,24.60
2023-05-19T00:45:23.120Z,22.30
2023-05-19T00:47:51.888Z,22.50
2023-05-19T00:50:20.603Z,23.80
2023-05-19T00:52:49.278Z,18.40
2023-05-19T00:55:18.125Z,21.80
2023-05-19T00:57:47.908Z,24.70
2023-05-19T01:00:16.735Z,21.60
2023-05-19T01:02:45.426Z,20.90
2023-05-19T01:05:14.285Z,23.90
2023-05-19T01:07:43.258Z,24.40
2023-05-19T01:10:11.932Z,22.30
2023-05-19T01:12:41.166Z,24.80
2023-05-19T01:15:10.865Z,21.00
2023-05-19T01:18:12.116Z,21.00
2023-05-19T01:20:55.300Z,20.90
2023-05-19T01:24:09.294Z,21.70
2023-05-19T01:28:07.745Z,26.70
2023-05-19T01:30:52.864Z,25.10
2023-05-19T01:33:23.728Z,26.20
2023-05-19T01:35:54.341Z,23.90
2023-05-19T01:38:25.553Z,19.90
2023-05-19T01:40:56.363Z,22.50
2023-05-19T01:43:27.500Z,23.20
2023-05-19T01:45:58.980Z,24.30
2023-05-19T01:48:29.148Z,20.10
2023-05-19T01:51:00.414Z,21.80
2023-05-19T01:53:29.073Z,22.50
2023-05-19T01:55:58.093Z,28.30
2023-05-19T01:58:47.740Z,20.70
2023-05-19T02:01:55.418Z,24.50
2023-05-19T02:04:40.272Z,23.70
2023-05-19T02:07:42.907Z,28.30
2023-05-19T02:10:18.400Z,23.50
2023-05-19T02:12:52.178Z,21.90
2023-05-19T02:15:27.621Z,24.70
2023-05-19T02:18:00.458Z,33.50
2023-05-19T02:20:29.672Z,24.80
2023-05-19T02:22:58.271Z,27.70
2023-05-19T02:25:27.526Z,24.80
2023-05-19T02:27:58.617Z,26.30
2023-05-19T02:30:27.336Z,29.00
2023-05-19T02:32:55.998Z,28.50
2023-05-19T02:35:24.665Z,26.30
2023-05-19T02:37:54.358Z,22.60
2023-05-19T02:40:23.824Z,26.00
2023-05-19T02:42:52.549Z,29.90
2023-05-19T02:45:21.250Z,28.20
2023-05-19T02:47:49.854Z,23.90
2023-05-19T02:50:18.582Z,27.00
2023-05-19T02:52:47.147Z,25.40
2023-05-19T02:55:17.424Z,30.00
2023-05-19T02:57:46.311Z,30.90
2023-05-19T03:00:16.083Z,30.50
2023-05-19T03:02:44.851Z,28.70
2023-05-19T03:05:14.467Z,29.30
2023-05-19T03:07:46.038Z,30.60
2023-05-19T03:10:14.645Z,27.30
2023-05-19T03:12:43.248Z,27.60
2023-05-19T03:15:13.481Z,27.20
2023-05-19T03:17:42.214Z,26.40
2023-05-19T03:20:11.527Z,26.70
2023-05-19T03:22:40.192Z,22.30
2023-05-19T03:25:11.748Z,27.50
2023-05-19T03:27:40.455Z,31.20
2023-05-19T03:30:10.624Z,26.90
2023-05-19T03:32:56.034Z,22.30
2023-05-19T03:35:25.167Z,29.50
2023-05-19T03:37:54.722Z,29.50
2023-05-19T03:40:23.748Z,22.80
2023-05-19T03:42:54.613Z,30.10
2023-05-19T03:45:23.479Z,25.60
2023-05-19T03:47:53.214Z,26.50
2023-05-19T03:50:41.247Z,25.50
2023-05-19T03:53:20.391Z,22.80
2023-05-19T03:55:49.916Z,31.60
2023-05-19T03:58:19.187Z,26.80
2023-05-19T04:00:48.291Z,27.40
2023-05-19T04:03:17.068Z,29.10
2023-05-19T04:05:46.115Z,27.90
2023-05-19T04:08:15.158Z,26.10
2023-05-19T04:10:43.849Z,33.60
2023-05-19T04:13:12.704Z,32.70
2023-05-19T04:15:42.035Z,30.10
2023-05-19T04:18:11.404Z,28.80
2023-05-19T04:20:43.514Z,27.10
2023-05-19T04:23:12.588Z,27.90
2023-05-19T04:25:42.482Z,28.30
2023-05-19T04:28:11.173Z,31.40
2023-05-19T04:30:39.876Z,27.00
2023-05-19T04:33:11.777Z,27.20
2023-05-19T04:35:41.345Z,32.70
2023-05-19T04:38:12.213Z,31.80
2023-05-19T04:40:42.443Z,29.60
2023-05-19T04:43:11.559Z,29.80
2023-05-19T04:45:42.774Z,26.30
2023-05-19T04:48:12.353Z,30.80
2023-05-19T04:50:42.310Z,25.40
2023-05-19T04:53:11.740Z,27.80
2023-05-19T04:55:40.508Z,33.80
2023-05-19T04:58:10.891Z,29.00
2023-05-19T05:00:39.465Z,31.00
2023-05-19T05:03:09.210Z,35.60
2023-05-19T05:05:37.935Z,25.30
2023-05-19T05:08:07.354Z,31.10
2023-05-19T05:10:38.796Z,28.60
2023-05-19T05:13:09.974Z,26.20
2023-05-19T05:15:40.436Z,24.80
2023-05-19T05:18:10.177Z,27.20
2023-05-19T05:20:39.676Z,27.40
2023-05-19T05:23:09.776Z,23.30
2023-05-19T05:25:39.654Z,22.90
2023-05-19T05:28:08.628Z,25.80
2023-05-19T05:30:38.263Z,27.10
2023-05-19T05:33:08.214Z,25.90
2023-05-19T05:35:39.313Z,29.50
2023-05-19T05:38:09.029Z,22.50
2023-05-19T05:40:38.023Z,25.80
2023-05-19T05:43:06.866Z,26.20
2023-05-19T05:45:38.581Z,21.90
2023-05-19T05:48:07.945Z,24.70
2023-05-19T05:50:37.209Z,25.40
2023-05-19T05:53:07.525Z,25.10
2023-05-19T05:55:36.857Z,25.60
2023-05-19T05:58:06.602Z,24.70
2023-05-19T06:00:37.007Z,23.70
2023-05-19T06:03:06.275Z,17.80
2023-05-19T06:05:35.034Z,25.80
2023-05-19T06:08:04.520Z,24.00
2023-05-19T06:10:33.725Z,20.90
2023-05-19T06:13:03.023Z,22.70
2023-05-19T06:15:32.360Z,22.30
2023-05-19T06:18:08.846Z,30.90
2023-05-19T06:20:37.321Z,23.10
2023-05-19T06:23:05.890Z,18.50
2023-05-19T06:25:34.584Z,19.40
2023-05-19T06:28:03.716Z,21.70
2023-05-19T06:30:32.346Z,21.00
2023-05-19T06:33:08.802Z,20.40
2023-05-19T06:35:38.681Z,20.10
2023-05-19T06:38:07.285Z,23.90
2023-05-19T06:44:10.864Z,23.00
2023-05-19T06:46:39.567Z,19.30
2023-05-19T06:49:08.122Z,21.40
2023-05-19T06:51:39.644Z,23.90
2023-05-19T06:54:11.102Z,22.60
2023-05-19T06:56:39.898Z,20.20
2023-05-19T06:59:08.754Z,20.40
2023-05-19T07:01:40.006Z,22.00
2023-05-19T07:04:08.677Z,20.80
2023-05-19T07:06:37.329Z,19.60
2023-05-19T07:09:05.914Z,17.80
2023-05-19T07:11:35.220Z,16.00
2023-05-19T07:14:04.164Z,18.80
2023-05-19T07:16:33.074Z,20.00
2023-05-19T07:19:01.617Z,15.50
2023-05-19T07:21:30.264Z,19.40
2023-05-19T07:23:58.651Z,16.00
2023-05-19T07:30:01.026Z,16.20
2023-05-19T07:32:29.435Z,13.80
2023-05-19T07:34:58.062Z,18.50
2023-05-19T07:37:26.821Z,15.40
2023-05-19T07:39:55.313Z,15.20
2023-05-19T07:42:23.912Z,19.70
2023-05-19T07:44:52.544Z,19.60
2023-05-19T07:47:21.218Z,14.70
2023-05-19T07:49:51.744Z,14.30
2023-05-19T07:52:20.802Z,14.90
2023-05-19T07:54:49.311Z,12.60
2023-05-19T07:57:19.691Z,18.00
2023-05-19T07:59:48.210Z,11.10
2023-05-19T08:02:16.701Z,11.80
2023-05-19T08:04:45.300Z,7.20
2023-05-19T08:07:13.926Z,12.10
2023-05-19T08:09:42.400Z,12.00
2023-05-19T08:12:11.169Z,12.60
2023-05-19T08:14:39.677Z,10.60
2023-05-19T08:17:08.162Z,12.70
2023-05-19T08:19:36.717Z,11.80
2023-05-19T08:22:05.453Z,12.30
2023-05-19T08:24:34.075Z,11.90
2023-05-19T08:27:02.778Z,13.90
2023-05-19T08:29:32.101Z,13.00
2023-05-19T08:32:01.955Z,11.40
2023-05-19T08:34:30.544Z,14.10
2023-05-19T08:36:59.953Z,10.60
2023-05-19T08:39:28.649Z,9.60
2023-05-19T08:41:57.246Z,9.50
2023-05-19T08:44:25.637Z,10.40
2023-05-19T08:46:56.576Z,10.60
2023-05-19T08:49:30.872Z,10.10
2023-05-19T08:52:22.282Z,10.80
2023-05-19T08:55:09.728Z,10.50
2023-05-19T08:57:38.770Z,10.80
2023-05-19T09:00:12.500Z,11.00
2023-05-19T09:02:50.642Z,8.90
2023-05-19T09:05:29.658Z,9.90
2023-05-19T09:07:58.447Z,10.20
2023-05-19T09:10:29.022Z,10.50
2023-05-19T09:12:57.804Z,8.30
2023-05-19T09:15:29.291Z,11.30
2023-05-19T09:18:12.529Z,9.00
2023-05-19T09:20:43.973Z,12.50
2023-05-19T09:23:37.863Z,7.70
2023-05-19T09:29:37.588Z,7.60
2023-05-19T09:32:06.533Z,7.10
2023-05-19T09:34:35.074Z,7.10
2023-05-19T09:37:03.964Z,8.60
2023-05-19T09:39:33.066Z,9.80
2023-05-19T09:42:05.570Z,10.10
2023-05-19T09:44:35.608Z,8.10
2023-05-19T09:47:05.522Z,9.00
2023-05-19T09:49:34.685Z,7.60
2023-05-19T09:52:04.222Z,11.60
2023-05-19T09:54:34.657Z,16.50
2023-05-19T09:57:07.758Z,7.90
2023-05-19T09:59:39.296Z,10.80
2023-05-19T10:02:17.069Z,8.10
2023-05-19T10:04:47.827Z,7.70
2023-05-19T10:07:17.939Z,7.60
2023-05-19T10:09:49.117Z,7.20
2023-05-19T10:12:18.462Z,11.10
2023-05-19T10:14:49.091Z,7.90
2023-05-19T10:17:17.871Z,11.40
2023-05-19T10:19:50.552Z,7.30
2023-05-19T10:22:20.191Z,9.60
2023-05-19T10:24:48.746Z,8.00
2023-05-19T10:27:18.866Z,11.10
2023-05-19T10:29:52.101Z,10.10
2023-05-19T10:32:28.819Z,7.40
2023-05-19T10:35:58.245Z,7.10
2023-05-19T10:38:59.129Z,6.30
2023-05-19T10:41:54.029Z,8.70
2023-05-19T10:44:55.188Z,8.50
2023-05-19T10:47:27.985Z,6.40
2023-05-19T10:49:57.016Z,6.50
2023-05-19T10:52:30.339Z,9.30
2023-05-19T10:54:59.144Z,8.50
2023-05-19T10:57:28.504Z,9.10
2023-05-19T10:59:57.593Z,10.40
2023-05-19T11:02:40.960Z,11.80
2023-05-19T11:05:18.302Z,6.90
2023-05-19T11:08:05.379Z,8.70
2023-05-19T11:10:35.169Z,6.90
2023-05-19T11:13:06.486Z,7.70
2023-05-19T11:15:38.842Z,6.90
2023-05-19T11:18:08.011Z,8.30
2023-05-19T11:20:39.409Z,8.20
2023-05-19T11:23:18.537Z,6.40
2023-05-19T11:25:49.767Z,10.00
2023-05-19T11:28:28.282Z,6.40
2023-05-19T11:30:59.272Z,8.00
2023-05-19T11:33:28.032Z,8.50
2023-05-19T11:35:58.677Z,6.60
2023-05-19T11:38:30.261Z,7.20
2023-05-19T11:40:59.199Z,6.50
2023-05-19T11:43:27.767Z,9.80
2023-05-19T11:45:56.527Z,10.50
2023-05-19T11:48:26.737Z,8.50
2023-05-19T11:50:56.997Z,8.30
2023-05-19T11:53:25.635Z,8.30
2023-05-19T11:55:54.242Z,9.40
2023-05-19T11:58:27.506Z,10.90
2023-05-19T12:00:56.769Z,8.40
2023-05-19T12:03:28.510Z,6.50
2023-05-19T12:05:57.462Z,7.80
2023-05-19T12:08:27.374Z,9.80
2023-05-19T12:10:56.472Z,6.60
2023-05-19T12:13:25.765Z,10.80
2023-05-19T12:15:54.379Z,10.40
2023-05-19T12:18:23.035Z,7.30
2023-05-19T12:20:52.049Z,9.00
2023-05-19T12:23:20.925Z,6.00
2023-05-19T12:25:49.778Z,8.40
2023-05-19T12:28:19.791Z,7.00
2023-05-19T12:30:53.253Z,6.90
2023-05-19T12:33:24.669Z,7.60
2023-05-19T12:35:55.061Z,7.80
2023-05-19T12:38:23.714Z,7.60
2023-05-19T12:40:52.439Z,8.10
2023-05-19T12:43:25.581Z,9.70
2023-05-19T12:45:54.403Z,6.70
2023-05-19T12:48:23.895Z,7.80
2023-05-19T12:50:54.544Z,7.20
2023-05-19T12:53:50.722Z,10.00
2023-05-19T12:56:19.224Z,12.20
2023-05-19T12:58:47.806Z,8.00
2023-05-19T13:01:19.040Z,11.40
2023-05-19T13:03:47.811Z,13.40
2023-05-19T13:06:16.400Z,7.00
2023-05-19T13:08:47.483Z,9.80
2023-05-19T13:11:15.997Z,7.30
2023-05-19T13:13:44.725Z,6.80
2023-05-19T13:16:13.632Z,6.80
2023-05-19T13:18:42.307Z,8.80
2023-05-19T13:21:10.799Z,6.40
2023-05-19T13:23:40.004Z,5.80
2023-05-19T13:26:09.329Z,5.90
2023-05-19T13:28:54.248Z,6.30
2023-05-19T13:31:22.851Z,7.70
2023-05-19T13:33:51.558Z,7.80
2023-05-19T13:36:19.880Z,10.60
2023-05-19T13:38:48.387Z,8.90
2023-05-19T13:41:18.486Z,10.60
2023-05-19T13:43:47.001Z,9.10
2023-05-19T13:46:15.476Z,8.50
2023-05-19T13:48:44.063Z,10.10
2023-05-19T13:51:13.604Z,11.00
2023-05-19T13:53:42.649Z,6.70
2023-05-19T13:56:11.324Z,6.70
2023-05-19T13:58:40.135Z,10.90
2023-05-19T14:01:09.652Z,9.70
2023-05-19T14:03:38.262Z,7.10
2023-05-19T14:06:07.298Z,10.10
2023-05-19T14:08:36.532Z,7.70
2023-05-19T14:11:05.186Z,7.20
2023-05-19T14:13:38.263Z,8.90
2023-05-19T14:16:09.805Z,11.90
2023-05-19T14:18:38.385Z,7.80
2023-05-19T14:21:07.048Z,10.60
2023-05-19T14:23:35.698Z,8.20
2023-05-19T14:26:04.343Z,9.00
2023-05-19T14:28:32.967Z,6.70
2023-05-19T14:31:01.572Z,7.10
2023-05-19T14:33:34.934Z,6.20
2023-05-19T14:36:05.575Z,6.80
2023-05-19T14:38:34.305Z,6.20
2023-05-19T14:41:13.465Z,6.50
2023-05-19T14:43:43.364Z,4.20
2023-05-19T14:46:11.991Z,5.20
2023-05-19T14:48:40.566Z,4.80
2023-05-19T14:51:09.152Z,5.40
2023-05-19T14:53:37.817Z,4.30
2023-05-19T14:56:07.546Z,6.60
2023-05-19T14:58:36.280Z,7.20
2023-05-19T15:01:04.968Z,7.80
2023-05-19T15:03:33.499Z,6.80
2023-05-19T15:06:02.220Z,5.00
2023-05-19T15:08:30.883Z,5.40
2023-05-19T15:10:59.399Z,6.60
2023-05-19T15:13:29.152Z,6.50
2023-05-19T15:16:12.474Z,7.00
2023-05-19T15:18:44.897Z,7.70
2023-05-19T15:21:13.596Z,6.30
2023-05-19T15:23:42.303Z,5.70
2023-05-19T15:26:10.691Z,6.60
2023-05-19T15:28:39.193Z,7.80
2023-05-19T15:31:07.703Z,6.10
2023-05-19T15:33:36.381Z,6.70
2023-05-19T15:36:05.341Z,6.00
2023-05-19T15:38:36.770Z,7.60
2023-05-19T15:41:08.431Z,7.60
2023-05-19T15:43:37.083Z,5.40
2023-05-19T15:46:05.865Z,5.60
2023-05-19T15:48:34.772Z,4.90
2023-05-19T15:51:03.521Z,5.10
2023-05-19T15:53:32.044Z,5.60
2023-05-19T15:56:01.183Z,7.90
2023-05-19T15:58:30.832Z,5.50
2023-05-19T16:00:59.465Z,5.80
2023-05-19T16:03:28.241Z,6.00
2023-05-19T16:05:57.057Z,5.60
2023-05-19T16:08:25.892Z,6.50
2023-05-19T16:10:55.377Z,6.40
2023-05-19T16:13:24.222Z,5.80
2023-05-19T16:15:53.007Z,6.40
2023-05-19T16:18:21.624Z,5.80
2023-05-19T16:20:51.605Z,9.70
2023-05-19T16:23:20.155Z,6.00
2023-05-19T16:25:48.900Z,8.00
2023-05-19T16:28:17.610Z,6.50
2023-05-19T16:30:46.389Z,6.90
2023-05-19T16:33:20.170Z,6.20
2023-05-19T16:35:48.822Z,6.70
2023-05-19T16:38:17.403Z,6.20
2023-05-19T16:40:45.875Z,7.40
2023-05-19T16:43:14.556Z,8.00
2023-05-19T16:45:43.116Z,8.80
2023-05-19T16:48:11.729Z,7.00
2023-05-19T16:50:40.254Z,6.90
2023-05-19T16:53:08.648Z,7.80
2023-05-19T16:55:37.292Z,7.10
2023-05-19T16:58:05.792Z,9.50
2023-05-19T17:00:35.112Z,10.00
2023-05-19T17:03:05.126Z,7.90
2023-05-19T17:05:33.901Z,10.70
2023-05-19T17:08:02.586Z,8.20
2023-05-19T17:10:35.051Z,7.10
2023-05-19T17:13:03.815Z,7.50
2023-05-19T17:15:34.884Z,8.20
2023-05-19T17:18:03.727Z,8.50
2023-05-19T17:20:32.442Z,7.50
2023-05-19T17:23:01.516Z,9.00
2023-05-19T17:25:29.917Z,7.80
2023-05-19T17:27:58.500Z,10.40
2023-05-19T17:30:27.359Z,10.20
2023-05-19T17:33:03.235Z,8.10
2023-05-19T17:35:33.589Z,9.50
2023-05-19T17:38:02.040Z,10.40
2023-05-19T17:40:31.129Z,10.00
2023-05-19T17:42:59.864Z,9.30
2023-05-19T17:45:28.384Z,8.50
2023-05-19T17:47:56.807Z,12.30
2023-05-19T17:50:25.434Z,11.00
2023-05-19T17:52:54.655Z,9.10
2023-05-19T17:55:28.147Z,10.70
2023-05-19T17:57:57.711Z,9.90
2023-05-19T18:00:26.444Z,9.20
2023-05-19T18:02:57.179Z,9.80
2023-05-19T18:05:26.725Z,8.50
2023-05-19T18:07:57.599Z,10.70
2023-05-19T18:10:27.679Z,8.00
2023-05-19T18:12:56.204Z,8.50
2023-05-19T18:15:24.645Z,14.50
2023-05-19T18:17:53.234Z,7.40
2023-05-19T18:20:23.714Z,9.60
2023-05-19T18:22:54.798Z,8.30
2023-05-19T18:25:23.873Z,8.80
2023-05-19T18:27:55.928Z,8.10
2023-05-19T18:30:24.469Z,12.30
2023-05-19T18:32:53.635Z,7.80
2023-05-19T18:35:24.503Z,12.50
2023-05-19T18:37:57.584Z,9.70
2023-05-19T18:40:26.316Z,13.50
2023-05-19T18:42:54.867Z,10.50
2023-05-19T18:45:23.398Z,9.30
2023-05-19T18:47:52.051Z,12.80
2023-05-19T18:50:20.819Z,14.30
2023-05-19T18:52:49.374Z,15.50
2023-05-19T18:55:17.979Z,11.60
2023-05-19T18:57:46.541Z,12.90
2023-05-19T19:00:15.863Z,9.70
2023-05-19T19:02:44.633Z,9.80
2023-05-19T19:05:14.203Z,11.80
2023-05-19T19:07:44.871Z,16.50
2023-05-19T19:10:13.620Z,12.50
2023-05-19T19:12:42.098Z,11.20
2023-05-19T19:15:11.483Z,10.60
2023-05-19T19:17:40.308Z,11.30
2023-05-19T19:20:09.638Z,12.70
2023-05-19T19:22:38.466Z,11.60
2023-05-19T19:25:08.560Z,9.00
2023-05-19T19:27:40.285Z,11.80
2023-05-19T19:30:09.671Z,11.90
2023-05-19T19:32:38.334Z,10.60
2023-05-19T19:35:07.276Z,11.10
2023-05-19T19:37:35.799Z,12.40
2023-05-19T19:40:04.871Z,12.00
2023-05-19T19:42:33.396Z,9.60
2023-05-19T19:45:02.270Z,12.60
2023-05-19T19:47:30.956Z,10.90
2023-05-19T19:50:01.260Z,11.30
2023-05-19T19:52:29.823Z,11.50
2023-05-19T19:54:58.303Z,12.30
2023-05-19T19:57:27.222Z,11.50
2023-05-19T19:59:57.438Z,12.50
2023-05-19T20:02:26.577Z,15.80
2023-05-19T20:04:55.376Z,12.10
2023-05-19T20:07:23.891Z,10.60
2023-05-19T20:09:52.823Z,13.40
2023-05-19T20:12:22.439Z,11.50
2023-05-19T20:14:54.092Z,13.20
2023-05-19T20:17:22.580Z,10.10
2023-05-19T20:19:51.054Z,12.30
2023-05-19T20:22:19.331Z,11.60
2023-05-19T20:24:47.713Z,12.00
2023-05-19T20:27:16.144Z,13.70
2023-05-19T20:29:45.592Z,10.40
2023-05-19T20:32:13.984Z,11.60
2023-05-19T20:34:42.425Z,8.90
2023-05-19T20:37:13.824Z,12.30
2023-05-19T20:39:43.441Z,12.50
2023-05-19T20:42:11.727Z,12.60
2023-05-19T20:44:40.165Z,11.90
2023-05-19T20:47:10.101Z,11.30
2023-05-19T20:49:38.732Z,11.20
2023-05-19T20:53:40.910Z,11.40
2023-05-19T20:56:10.814Z,12.40
2023-05-19T20:58:39.889Z,12.00
2023-05-19T21:01:08.419Z,10.40
2023-05-19T21:03:37.089Z,11.30
2023-05-19T21:06:05.636Z,15.00
2023-05-19T21:08:34.215Z,13.80
2023-05-19T21:11:02.649Z,12.40
2023-05-19T21:13:31.767Z,13.50
2023-05-19T21:16:00.430Z,14.20
2023-05-19T21:18:29.066Z,14.30
2023-05-19T21:20:57.697Z,13.80
2023-05-19T21:23:26.243Z,13.90
2023-05-19T21:25:55.071Z,11.50
2023-05-19T21:28:23.534Z,10.70
2023-05-19T21:30:52.105Z,12.70
2023-05-19T21:33:20.734Z,11.40
2023-05-19T21:35:49.316Z,13.10
2023-05-19T21:38:23.752Z,12.30
2023-05-19T21:40:53.465Z,13.50
2023-05-19T21:43:22.936Z,12.00
2023-05-19T21:45:51.731Z,12.50
2023-05-19T21:48:20.429Z,12.30
2023-05-19T21:50:55.926Z,12.70
2023-05-19T21:53:25.261Z,11.10
2023-05-19T21:55:53.892Z,14.00
2023-05-19T21:58:22.887Z,12.50
2023-05-19T22:00:53.459Z,11.90
2023-05-19T22:03:22.474Z,11.90
2023-05-19T22:05:53.063Z,12.50
2023-05-19T22:08:26.215Z,9.70
2023-05-19T22:10:54.820Z,11.20
2023-05-19T22:13:23.267Z,15.60
2023-05-19T22:15:51.824Z,11.90
2023-05-19T22:18:20.480Z,14.10
2023-05-19T22:20:49.088Z,13.30
2023-05-19T22:23:17.603Z,10.90
2023-05-19T22:25:47.015Z,12.70
2023-05-19T22:28:15.779Z,13.40
2023-05-19T22:30:44.372Z,18.70
2023-05-19T22:33:13.102Z,14.20
2023-05-19T22:35:42.108Z,11.00
2023-05-19T22:38:10.848Z,11.40
2023-05-19T22:40:39.565Z,12.30
2023-05-19T22:43:08.099Z,10.90
2023-05-19T22:45:36.973Z,10.40
2023-05-19T22:48:06.151Z,9.40
2023-05-19T22:50:34.742Z,10.70
2023-05-19T22:53:03.360Z,12.10
2023-05-19T22:55:32.502Z,14.00
2023-05-19T22:58:01.217Z,18.70
2023-05-19T23:00:29.762Z,12.70
2023-05-19T23:02:58.519Z,12.60
2023-05-19T23:05:26.957Z,15.70
2023-05-19T23:07:55.571Z,17.00
2023-05-19T23:10:24.012Z,11.80
2023-05-19T23:12:52.658Z,14.30
2023-05-19T23:15:21.165Z,10.80
2023-05-19T23:17:49.818Z,10.90
2023-05-19T23:20:18.355Z,14.60
2023-05-19T23:22:46.819Z,9.90
2023-05-19T23:25:15.244Z,10.20
2023-05-19T23:27:43.697Z,12.60
2023-05-19T23:30:12.360Z,12.40
2023-05-19T23:32:41.157Z,15.40
2023-05-19T23:35:16.067Z,13.30
2023-05-19T23:37:44.635Z,16.30
2023-05-19T23:40:13.249Z,10.80
2023-05-19T23:42:41.654Z,11.30
2023-05-19T23:45:10.471Z,13.40
2023-05-19T23:51:10.955Z,16.80
2023-05-19T23:53:39.808Z,10.60
2023-05-19T23:56:08.535Z,13.20
2023-05-19T23:58:37.655Z,10.10
